»·PEaware :: N664ST KEWR-KJFK

N664ST :: KEWR-KJFK

FLIGHT INFORMATION

Flight Status: Arrived
Operator: Privately registered:
United States
More flights under this callsign
Pilot: Anonymous 328 (328)
Aircraft: Unknown
(G700)
More flights by this aircraft type
Origin: KEWR Newark Intl
United States
Destination: KJFK Kennedy Intl
United States
More flights between these airports :: More routes between these airports
Route: BREZY V39 CMK V419 JUDDS NELIE MAD V1 DPK
File this flight plan on PilotEdge
Remarks:
Altitude:
(Current/Filed)
11,000ft
Speed:
(Current/Filed)
0kts
Departed: 21-Sep-21 11:13 AM
Arrived: 21-Sep-21 12:01 PM
Distance/Time
Traveled:
11nm/0:48
Distance/Time
To Go:
Arrived

Flight Plot

Page will automatically refresh every two minutes.

Flight plan parsing failed; only flown route is shown


Map Options




Map Legend


Flown Route
Filed Route
Departure Airport
Arrival Airport
Navaid (VOR, NDB)
Fix

Horizontal Profiles

Position Reports

Time Latitude Longitude Heading Altitude Ground
Speed
21-Sep-21 11:03 40.678719 -74.178932 206 19ft 14kts
21-Sep-21 11:04 40.676342 -74.180458 204 19ft 6kts
21-Sep-21 11:05 40.676083 -74.180466 154 19ft 0kts
21-Sep-21 11:06 40.676083 -74.180466 154 19ft 0kts
21-Sep-21 11:07 40.676083 -74.180466 154 19ft 0kts
21-Sep-21 11:08 40.676083 -74.180466 154 19ft 0kts
21-Sep-21 11:09 40.676083 -74.180466 154 19ft 0kts
21-Sep-21 11:10 40.676083 -74.180466 154 19ft 0kts
21-Sep-21 11:11 40.675877 -74.179146 26 19ft 7kts
21-Sep-21 11:12 40.710167 -74.148888 47 2561ft 203kts
21-Sep-21 11:13 40.756912 -74.084900 35 3631ft 259kts
21-Sep-21 11:14 40.815632 -74.114540 283 6840ft 274kts
21-Sep-21 11:15 40.856983 -74.189552 359 9569ft 286kts
21-Sep-21 11:17 40.939995 -74.174995 8 10744ft 334kts
21-Sep-21 11:18 41.027637 -74.132324 53 11010ft 348kts
21-Sep-21 11:19 41.078472 -74.022858 58 11009ft 348kts
21-Sep-21 11:20 41.128803 -73.913399 58 11004ft 348kts
21-Sep-21 11:21 41.179161 -73.803368 58 11009ft 348kts
21-Sep-21 11:22 41.229370 -73.693161 58 11005ft 348kts
21-Sep-21 11:23 41.280746 -73.583870 51 11008ft 348kts
21-Sep-21 11:24 41.348042 -73.490936 45 11007ft 348kts
21-Sep-21 11:25 41.416492 -73.399323 45 11000ft 349kts
21-Sep-21 11:26 41.483818 -73.312279 43 10993ft 328kts
21-Sep-21 11:27 41.549988 -73.228493 46 10977ft 328kts
21-Sep-21 11:28 41.612354 -73.139793 46 11022ft 326kts
21-Sep-21 11:29 41.676174 -73.053093 45 10981ft 327kts
21-Sep-21 11:30 41.741020 -72.968132 44 10976ft 325kts
21-Sep-21 11:31 41.803318 -72.880806 48 11004ft 323kts
21-Sep-21 11:32 41.852844 -72.780449 63 11008ft 325kts
21-Sep-21 11:33 41.886093 -72.670708 67 8485ft 310kts
21-Sep-21 11:34 41.943214 -72.601006 61 5715ft 247kts
21-Sep-21 11:35 41.923096 -72.539124 199 3646ft 247kts
21-Sep-21 11:36 41.871090 -72.608574 223 2327ft 262kts
21-Sep-21 11:37 41.816456 -72.680679 225 2099ft 302kts
21-Sep-21 11:38 41.755524 -72.756996 228 2097ft 291kts
21-Sep-21 11:39 41.705078 -72.829620 223 2102ft 259kts
21-Sep-21 11:40 41.652115 -72.895134 220 2326ft 254kts
21-Sep-21 11:41 41.586639 -72.891510 148 3345ft 261kts
21-Sep-21 11:41 41.533218 -72.851563 150 5668ft 267kts
21-Sep-21 11:42 41.465954 -72.802444 151 9213ft 284kts
21-Sep-21 11:44 41.380379 -72.740242 151 10004ft 343kts
21-Sep-21 11:45 41.290474 -72.723320 209 10003ft 346kts
21-Sep-21 11:46 41.217312 -72.806709 221 10005ft 347kts
21-Sep-21 11:47 41.148403 -72.887550 221 10003ft 324kts
21-Sep-21 11:47 41.092075 -72.953629 221 10003ft 324kts
21-Sep-21 11:48 41.026920 -73.033676 231 9886ft 302kts
21-Sep-21 11:49 40.984821 -73.124947 239 8500ft 278kts
21-Sep-21 11:50 40.946953 -73.210701 239 7293ft 261kts
21-Sep-21 11:51 40.910717 -73.292824 239 6116ft 256kts
21-Sep-21 11:52 40.875023 -73.373428 239 4916ft 251kts
21-Sep-21 11:53 40.841366 -73.449257 239 4158ft 222kts
21-Sep-21 11:54 40.811909 -73.515495 239 3515ft 200kts
21-Sep-21 11:55 40.783928 -73.578209 239 2617ft 196kts
21-Sep-21 11:56 40.757763 -73.633736 223 2483ft 160kts
21-Sep-21 11:57 40.724174 -73.671028 221 1995ft 159kts
21-Sep-21 11:58 40.690815 -73.713890 222 1074ft 164kts
21-Sep-21 11:59 40.654266 -73.747856 209 206ft 157kts
21-Sep-21 12:00 40.630188 -73.767113 228 20ft 26kts
21-Sep-21 12:01 40.629288 -73.769447 275 20ft 9kts
21-Sep-21 12:02 40.629330 -73.769699 289 20ft 0kts
21-Sep-21 12:03 40.629330 -73.769699 289 20ft 0kts
21-Sep-21 12:04 40.629330 -73.769699 289 20ft 0kts
21-Sep-21 12:05 40.629330 -73.769699 289 20ft 0kts
21-Sep-21 12:06 40.629330 -73.769699 289 20ft 0kts
21-Sep-21 12:07 40.629330 -73.769699 289 20ft 0kts
21-Sep-21 12:13 40.854198 -74.055504 280 15ft 0kts
21-Sep-21 12:14 40.854198 -74.055504 280 15ft 0kts

Navigation Log

Ident Type
Flight plan parsing failed, navigation log unavailable